Atomic City, Idaho
Current Conditions -  °F | °C
As of 6:53 AM on Wednesday 26 Nov 2014 (Local Time) from KPIH Reporting Station
Clear Clear  
Wind Chill:   Ceiling: Unl
Heat Index:   Visibility: 10mi
Dew Point:   Wind: 22mph
Humidity: 74%   Direction: 210°SSW
Pressure: 30.3"   Gusts: NA
Location:  43.44°N, 112.81°W
Report Text: KPIH 261353Z 21019KT 10SM CLR 07/03 A3030 RMK AO2 PK WND 21026/1307 SLP255 T00720028
Loading
Personal Weather Stations






























Interactive Weather Map New forecast layout! Learn more

10-Day Weather Forecast

Advertisements
Track Severe Weather on mobile